Time;durP1;ratioP1;P1;durP2;ratioP2;P2;SDS_P1;SDS_P2;PMS_P1;PMS_P2;Temp;Humidity;BMP_temperature;BMP_pressure;BME280_temperature;BME280_humidity;BME280_pressure;Samples;Min_cycle;Max_cycle;Signal;HPM_P1;HPM_P2
2022/04/16 00:00:54;;;;;;;0.88;0.82;;;;;;;10.54;100.00;100988.31;7400043;19;20414;-58
2022/04/16 00:03:21;;;;;;;10.95;1.83;;;;;;;10.50;100.00;100996.00;7398973;19;20029;-57
2022/04/16 00:05:51;;;;;;;0.38;0.35;;;;;;;10.43;100.00;100996.25;7399568;19;20513;-58
2022/04/16 00:08:19;;;;;;;0.75;0.73;;;;;;;10.36;100.00;101002.03;7399193;19;20010;-58
2022/04/16 00:10:46;;;;;;;2.15;1.20;;;;;;;10.35;100.00;101005.25;7399698;19;20074;-57
2022/04/16 00:13:12;;;;;;;3.95;1.60;;;;;;;10.34;100.00;100993.34;7399221;19;20418;-58
2022/04/16 00:15:38;;;;;;;6.35;1.80;;;;;;;10.33;100.00;100991.78;7398153;19;20013;-58
2022/04/16 00:18:05;;;;;;;3.00;1.73;;;;;;;10.34;100.00;100987.00;7398330;19;20010;-57
2022/04/16 00:20:31;;;;;;;2.22;1.90;;;;;;;10.32;100.00;100995.78;7398810;19;20455;-58
2022/04/16 00:22:57;;;;;;;4.05;1.52;;;;;;;10.32;100.00;100995.78;7399678;19;20022;-57
2022/04/16 00:25:24;;;;;;;2.92;1.98;;;;;;;10.31;100.00;100993.47;7398495;19;20011;-58
2022/04/16 00:27:50;;;;;;;5.97;1.67;;;;;;;10.31;100.00;101002.56;7398436;19;20095;-57
2022/04/16 00:30:17;;;;;;;5.70;1.45;;;;;;;10.26;100.00;101003.16;7396839;19;20038;-57
2022/04/16 00:32:44;;;;;;;1.77;1.30;;;;;;;10.17;100.00;101000.25;7401421;19;20010;-57
2022/04/16 00:35:10;;;;;;;1.25;1.13;;;;;;;10.06;100.00;100994.19;7398660;19;20010;-57
2022/04/16 00:37:37;;;;;;;2.50;1.40;;;;;;;10.05;100.00;100994.66;7397922;19;20066;-57
2022/04/16 00:40:03;;;;;;;3.03;1.20;;;;;;;10.00;100.00;101004.31;7397699;19;20058;-58
2022/04/16 00:42:41;;;;;;;2.72;1.52;;;;;;;9.99;100.00;101005.53;7398182;19;20011;-58
2022/04/16 00:45:07;;;;;;;6.25;1.33;;;;;;;9.98;100.00;100997.66;7399044;19;20014;-57
2022/04/16 00:47:35;;;;;;;4.53;1.50;;;;;;;9.92;100.00;100994.63;7395752;19;20029;-57
2022/04/16 00:50:04;;;;;;;1.10;0.95;;;;;;;9.83;100.00;100991.72;7395581;19;20015;-57
2022/04/16 00:52:30;;;;;;;3.72;1.90;;;;;;;9.79;100.00;100986.25;7398010;19;20018;-57
2022/04/16 00:54:56;;;;;;;1.30;1.10;;;;;;;9.71;100.00;100989.69;7401356;19;20006;-57
2022/04/16 00:57:25;;;;;;;4.45;1.10;;;;;;;9.71;100.00;100990.47;7400088;19;20018;-57
2022/04/16 00:59:53;;;;;;;9.25;2.03;;;;;;;9.68;100.00;100990.59;7396848;19;20017;-57
2022/04/16 01:02:20;;;;;;;1.52;1.15;;;;;;;9.61;100.00;100997.13;7396978;19;20351;-57
2022/04/16 01:04:47;;;;;;;1.60;0.80;;;;;;;9.65;100.00;100997.81;7397849;19;20006;-57
2022/04/16 01:07:13;;;;;;;5.70;1.08;;;;;;;9.58;100.00;101002.78;7396590;19;20007;-57
2022/04/16 01:09:39;;;;;;;0.98;0.93;;;;;;;9.51;100.00;101002.97;7396077;19;20018;-57
2022/04/16 01:12:06;;;;;;;1.55;1.48;;;;;;;9.48;100.00;101007.44;7396863;19;20376;-57
2022/04/16 01:14:32;;;;;;;3.80;2.17;;;;;;;9.33;100.00;101005.50;7397735;19;20039;-58
2022/04/16 01:16:59;;;;;;;1.02;1.02;;;;;;;9.29;100.00;101007.59;7397396;19;20019;-57
2022/04/16 01:19:25;;;;;;;4.75;0.68;;;;;;;9.23;100.00;101003.75;7400041;19;20052;-57
2022/04/16 01:21:51;;;;;;;2.92;1.05;;;;;;;9.14;100.00;101007.19;7396339;19;20026;-57
2022/04/16 01:24:17;;;;;;;1.65;1.55;;;;;;;9.14;100.00;100996.84;7400491;19;20014;-57
2022/04/16 01:26:43;;;;;;;3.15;2.25;;;;;;;9.14;100.00;101005.19;7397350;19;20034;-57
2022/04/16 01:29:10;;;;;;;0.77;0.77;;;;;;;9.10;100.00;101010.06;7395610;19;20349;-57
2022/04/16 01:31:37;;;;;;;3.38;0.85;;;;;;;9.10;100.00;101018.41;7395879;19;20025;-57
2022/04/16 01:34:03;;;;;;;1.80;1.55;;;;;;;9.10;100.00;101023.16;7399720;19;20007;-57
2022/04/16 01:36:31;;;;;;;3.15;1.30;;;;;;;9.03;100.00;101029.69;7396650;19;20084;-57
2022/04/16 01:38:58;;;;;;;4.43;1.98;;;;;;;8.98;100.00;101030.22;7400132;19;20418;-57
2022/04/16 01:41:25;;;;;;;1.25;0.68;;;;;;;8.88;100.00;101028.50;7395930;19;20022;-57
2022/04/16 01:43:51;;;;;;;3.08;1.15;;;;;;;8.86;100.00;101030.13;7396528;19;20049;-57
2022/04/16 01:46:18;;;;;;;0.77;0.77;;;;;;;8.84;100.00;101033.34;7395545;19;20007;-57
2022/04/16 01:48:44;;;;;;;0.90;0.90;;;;;;;8.83;100.00;101031.81;7398451;19;20011;-57
2022/04/16 01:51:11;;;;;;;1.00;0.75;;;;;;;8.85;100.00;101034.16;7396352;19;20036;-57
2022/04/16 01:53:37;;;;;;;2.50;2.30;;;;;;;8.80;100.00;101029.88;7397593;19;20015;-58
2022/04/16 01:56:03;;;;;;;1.38;1.27;;;;;;;8.78;100.00;101035.09;7396235;19;20018;-57
2022/04/16 01:58:31;;;;;;;5.57;1.05;;;;;;;8.74;100.00;101034.41;7393879;19;20014;-57
2022/04/16 02:00:58;;;;;;;3.83;2.92;;;;;;;8.70;100.00;101035.72;7396303;19;20074;-57
2022/04/16 02:03:24;;;;;;;2.17;1.30;;;;;;;8.66;100.00;101038.59;7395675;19;20035;-57
2022/04/16 02:05:52;;;;;;;1.95;0.90;;;;;;;8.60;100.00;101029.19;7395967;19;20010;-57
2022/04/16 02:08:19;;;;;;;1.10;1.00;;;;;;;8.68;100.00;101035.38;7395533;19;20459;-57
2022/04/16 02:10:45;;;;;;;4.75;1.40;;;;;;;8.69;100.00;101032.16;7394011;19;20025;-57
2022/04/16 02:13:11;;;;;;;0.93;0.88;;;;;;;8.63;100.00;101027.53;7394072;19;20014;-57
2022/04/16 02:15:38;;;;;;;0.77;0.77;;;;;;;8.58;100.00;101031.63;7398591;19;20364;-57
2022/04/16 02:18:05;;;;;;;0.95;0.73;;;;;;;8.59;100.00;101026.84;7398642;19;20018;-57
2022/04/16 02:20:31;;;;;;;1.92;1.33;;;;;;;8.58;100.00;101037.16;7393734;19;20010;-57
2022/04/16 02:22:57;;;;;;;1.20;0.88;;;;;;;8.58;100.00;101041.94;7396384;19;20361;-57
2022/04/16 02:25:24;;;;;;;1.38;1.20;;;;;;;8.49;100.00;101033.47;7395476;19;20076;-57
2022/04/16 02:27:51;;;;;;;2.30;1.35;;;;;;;8.53;100.00;101046.03;7395333;19;20359;-57
2022/04/16 02:30:18;;;;;;;1.60;1.42;;;;;;;8.46;100.00;101040.66;7392957;19;20013;-57
2022/04/16 02:32:47;;;;;;;1.73;1.63;;;;;;;8.39;100.00;101033.25;7395740;19;20010;-57
2022/04/16 02:35:16;;;;;;;3.00;1.25;;;;;;;8.40;100.00;101043.13;7394716;19;20010;-57
2022/04/16 02:37:43;;;;;;;2.35;0.95;;;;;;;8.34;100.00;101036.53;7394914;19;20328;-57
2022/04/16 02:40:11;;;;;;;0.75;0.75;;;;;;;8.38;100.00;101040.00;7394018;19;20014;-58
2022/04/16 02:42:38;;;;;;;2.90;1.65;;;;;;;8.35;100.00;101040.91;7394147;19;20411;-57
2022/04/16 02:47:52;;;;;;;2.22;1.05;;;;;;;8.21;100.00;101046.72;7394380;19;20043;-57
2022/04/16 02:50:19;;;;;;;1.33;1.23;;;;;;;8.28;100.00;101043.81;7393763;19;20015;-58
2022/04/16 02:52:46;;;;;;;0.40;0.40;;;;;;;8.30;100.00;101044.19;7394311;19;20025;-57
2022/04/16 02:55:16;;;;;;;1.30;1.20;;;;;;;8.30;100.00;101044.19;7398739;19;20007;-57
2022/04/16 02:57:44;;;;;;;2.40;0.85;;;;;;;8.33;100.00;101042.53;7394257;19;20015;-57
2022/04/16 03:00:14;;;;;;;4.68;1.23;;;;;;;8.39;100.00;101052.69;7394257;19;20015;-58
2022/04/16 03:02:41;;;;;;;1.00;0.80;;;;;;;8.35;100.00;101056.75;7393900;19;20045;-57
2022/04/16 03:05:08;;;;;;;2.40;1.45;;;;;;;8.29;100.00;101061.28;7395841;19;20010;-58
2022/04/16 03:07:36;;;;;;;1.25;1.20;;;;;;;8.27;100.00;101070.00;7391546;19;20014;-58
2022/04/16 03:10:08;;;;;;;0.82;0.73;;;;;;;8.24;100.00;101072.84;7390451;19;20337;-58
2022/04/16 03:12:43;;;;;;;1.40;0.73;;;;;;;8.20;100.00;101067.38;7392239;19;20013;-58
2022/04/16 03:17:55;;;;;;;2.15;0.70;;;;;;;8.06;100.00;101072.44;7392999;19;20033;-58
2022/04/16 03:20:21;;;;;;;2.90;1.25;;;;;;;8.06;100.00;101075.19;7392576;19;20011;-58
2022/04/16 03:22:48;;;;;;;1.27;0.90;;;;;;;8.05;100.00;101082.75;7393975;19;20010;-58
2022/04/16 03:25:14;;;;;;;2.88;0.90;;;;;;;8.08;100.00;101070.00;7391311;19;20007;-58
2022/04/16 03:27:40;;;;;;;1.10;0.82;;;;;;;8.04;100.00;101080.41;7391037;19;20468;-59
2022/04/16 03:30:07;;;;;;;1.58;1.08;;;;;;;8.00;100.00;101090.78;7391171;19;20357;-58
2022/04/16 03:32:40;;;;;;;0.73;0.70;;;;;;;7.97;100.00;101091.66;7394215;19;20011;-58
2022/04/16 03:35:08;;;;;;;4.05;1.45;;;;;;;7.98;100.00;101093.22;7392856;19;20381;-58
2022/04/16 03:37:36;;;;;;;0.75;0.75;;;;;;;7.97;100.00;101097.97;7392403;19;20082;-58
2022/04/16 03:40:04;;;;;;;2.78;1.30;;;;;;;7.93;100.00;101102.81;7392099;19;20011;-58
2022/04/16 03:42:31;;;;;;;1.60;1.05;;;;;;;7.90;100.00;101111.22;7391889;19;20014;-58
2022/04/16 03:45:01;;;;;;;2.00;1.10;;;;;;;7.98;100.00;101109.84;7392523;19;20468;-58
2022/04/16 03:47:27;;;;;;;1.52;1.27;;;;;;;8.03;100.00;101112.13;7393831;19;20031;-58
2022/04/16 03:49:55;;;;;;;0.90;0.70;;;;;;;8.13;100.00;101116.69;7391570;19;20010;-60
2022/04/16 03:52:21;;;;;;;2.05;1.02;;;;;;;8.24;100.00;101122.78;7392547;19;20035;-58
2022/04/16 04:00:17;;;;;;;1.40;1.30;;;;;;;8.50;100.00;101119.06;7391917;19;20070;-58
2022/04/16 04:02:43;;;;;;;1.20;1.10;;;;;;;8.53;100.00;101123.78;7391631;19;20011;-58
2022/04/16 04:05:10;;;;;;;3.90;1.80;;;;;;;8.52;100.00;101130.53;7393056;19;20018;-58
2022/04/16 04:07:36;;;;;;;1.27;1.13;;;;;;;8.59;100.00;101119.28;7392267;19;20010;-58
2022/04/16 04:10:04;;;;;;;1.70;1.60;;;;;;;8.61;100.00;101118.84;7390699;19;20014;-58
2022/04/16 04:12:31;;;;;;;7.40;1.10;;;;;;;8.65;100.00;101117.53;7392602;19;20025;-58
2022/04/16 04:14:58;;;;;;;0.70;0.70;;;;;;;8.65;100.00;101125.88;7391455;19;20039;-58
2022/04/16 04:17:24;;;;;;;0.88;0.70;;;;;;;8.68;100.00;101119.47;7391518;19;20022;-57
2022/04/16 04:19:50;;;;;;;3.47;0.68;;;;;;;8.70;100.00;101110.69;7391699;19;20010;-58
2022/04/16 04:22:17;;;;;;;1.40;0.98;;;;;;;8.65;100.00;101109.22;7397279;19;20015;-58
2022/04/16 04:24:44;;;;;;;3.97;1.33;;;;;;;8.52;100.00;101110.31;7402084;19;20010;-58
2022/04/16 04:27:10;;;;;;;2.38;1.42;;;;;;;8.40;100.00;101103.44;7397810;19;20011;-58
2022/04/16 04:29:37;;;;;;;1.40;1.17;;;;;;;8.30;100.00;101110.78;7396933;19;20010;-58
2022/04/16 04:32:05;;;;;;;2.42;1.65;;;;;;;8.24;100.00;101109.69;7397631;19;20070;-58
2022/04/16 04:34:32;;;;;;;1.50;0.80;;;;;;;8.23;100.00;101116.44;7399031;19;20015;-58
2022/04/16 04:36:58;;;;;;;1.17;0.73;;;;;;;8.21;100.00;101118.09;7401547;19;20022;-58
2022/04/16 04:39:24;;;;;;;0.80;0.80;;;;;;;8.25;100.00;101113.25;7399174;19;20015;-58
2022/04/16 04:41:50;;;;;;;0.80;0.77;;;;;;;8.25;100.00;101113.25;7401065;19;20006;-57
2022/04/16 04:44:17;;;;;;;2.72;1.10;;;;;;;8.21;100.00;101112.53;7398089;19;20018;-58
2022/04/16 04:46:43;;;;;;;2.10;0.70;;;;;;;8.22;100.00;101109.34;7398731;19;20336;-58
2022/04/16 04:49:13;;;;;;;2.17;1.13;;;;;;;8.16;100.00;101108.28;7396370;19;20010;-58
2022/04/16 04:51:39;;;;;;;1.23;1.23;;;;;;;8.08;100.00;101108.84;7400386;19;20055;-58
2022/04/16 04:54:06;;;;;;;0.82;0.82;;;;;;;8.03;100.00;101110.16;7401187;19;20018;-58
2022/04/16 04:56:36;;;;;;;1.45;1.00;;;;;;;7.93;100.00;101119.44;7401509;19;20010;-58
2022/04/16 04:59:03;;;;;;;4.40;2.45;;;;;;;7.85;100.00;101114.47;7398616;19;20010;-58
2022/04/16 05:01:29;;;;;;;0.73;0.57;;;;;;;7.82;100.00;101109.81;7398399;19;20011;-58
2022/04/16 05:03:56;;;;;;;1.30;1.20;;;;;;;7.77;100.00;101110.28;7399862;19;20011;-58
2022/04/16 05:06:22;;;;;;;1.52;0.70;;;;;;;7.76;100.00;101108.72;7397876;19;20014;-58
2022/04/16 05:08:48;;;;;;;10.88;1.67;;;;;;;7.79;100.00;101103.09;7396798;19;20014;-59
2022/04/16 05:11:14;;;;;;;0.98;0.90;;;;;;;7.87;100.00;101112.06;7396865;19;20014;-58
2022/04/16 05:13:40;;;;;;;5.10;1.35;;;;;;;7.86;100.00;101113.28;7396411;19;20018;-58
2022/04/16 05:16:07;;;;;;;3.15;0.90;;;;;;;7.78;100.00;101111.84;7397154;19;20400;-58
2022/04/16 05:18:33;;;;;;;5.30;1.95;;;;;;;7.81;100.00;101116.53;7398163;19;20367;-58
2022/04/16 05:20:59;;;;;;;4.70;1.73;;;;;;;7.80;100.00;101114.97;7396155;19;20006;-58
2022/04/16 05:23:26;;;;;;;1.80;1.67;;;;;;;7.84;100.00;101118.47;7399091;19;20459;-58
2022/04/16 05:25:52;;;;;;;5.18;1.00;;;;;;;7.88;100.00;101127.50;7396748;19;20018;-58
2022/04/16 05:28:18;;;;;;;6.72;2.00;;;;;;;7.89;100.00;101132.63;7399687;19;20015;-58
2022/04/16 05:30:48;;;;;;;3.88;1.23;;;;;;;8.02;100.00;101139.09;7394983;19;20014;-58
2022/04/16 05:36:00;;;;;;;3.33;1.80;;;;;;;8.35;100.00;101148.34;7396947;19;20028;-58
2022/04/16 05:38:26;;;;;;;1.05;1.00;;;;;;;8.61;100.00;101147.38;7395342;19;20018;-58
2022/04/16 05:40:52;;;;;;;1.30;1.08;;;;;;;8.79;100.00;101153.31;7395507;19;20039;-58
2022/04/16 05:43:19;;;;;;;2.03;1.30;;;;;;;8.94;100.00;101156.56;7396823;19;20032;-58
2022/04/16 05:45:45;;;;;;;3.17;1.67;;;;;;;9.05;100.00;101155.06;7395331;19;20011;-58
2022/04/16 05:48:11;;;;;;;3.28;1.08;;;;;;;9.15;100.00;101156.03;7394513;19;20014;-58
2022/04/16 05:50:38;;;;;;;2.35;1.27;;;;;;;9.30;100.00;101159.25;7392554;19;20018;-58
2022/04/16 05:53:10;;;;;;;2.20;1.20;;;;;;;9.43;100.00;101165.66;7398768;19;20015;-58
2022/04/16 05:55:39;;;;;;;2.13;1.30;;;;;;;9.51;100.00;101158.69;7395206;19;20011;-58
2022/04/16 05:58:05;;;;;;;2.15;1.08;;;;;;;9.58;100.00;101164.09;7394664;19;20010;-58
2022/04/16 06:00:32;;;;;;;1.70;1.60;;;;;;;9.77;100.00;101166.75;7396216;19;20010;-57
2022/04/16 06:02:58;;;;;;;2.45;1.10;;;;;;;9.88;100.00;101163.66;7398877;19;20030;-58
2022/04/16 06:05:24;;;;;;;15.93;2.97;;;;;;;10.08;100.00;101160.75;7395803;19;20024;-57
2022/04/16 06:07:50;;;;;;;11.18;2.92;;;;;;;10.27;100.00;101154.25;7394664;19;20015;-58
2022/04/16 06:10:17;;;;;;;15.57;2.28;;;;;;;10.30;100.00;101158.94;7391573;19;20010;-55
2022/04/16 06:12:43;;;;;;;11.50;3.88;;;;;;;10.27;100.00;101165.38;7391569;19;20011;-55
2022/04/16 06:15:10;;;;;;;23.77;5.40;;;;;;;10.28;100.00;101167.75;7391362;19;20482;-54
2022/04/16 06:17:36;;;;;;;9.02;2.38;;;;;;;10.30;100.00;101159.72;7391692;19;20070;-55
2022/04/16 06:20:07;;;;;;;8.13;1.40;;;;;;;10.29;100.00;101163.72;7389784;19;20015;-54
2022/04/16 06:22:33;;;;;;;;;;;;;;;10.28;100.00;101166.97;7392663;19;20021;-55
2022/04/16 06:24:59;;;;;;;10.05;4.15;;;;;;;10.32;100.00;101167.63;7391659;19;19925;-55
2022/04/16 06:27:25;;;;;;;7.40;2.05;;;;;;;10.40;100.00;101161.41;7395225;19;20011;-55
2022/04/16 06:29:54;;;;;;;6.20;2.80;;;;;;;10.52;100.00;101157.09;7392533;19;20052;-55
2022/04/16 06:32:21;;;;;;;7.55;3.33;;;;;;;10.71;100.00;101166.47;7395699;19;20049;-55
2022/04/16 06:34:47;;;;;;;6.03;3.00;;;;;;;10.89;100.00;101155.56;7393715;19;20011;-55
2022/04/16 06:37:13;;;;;;;4.35;2.08;;;;;;;11.05;100.00;101163.78;7394492;19;20101;-55
2022/04/16 06:39:41;;;;;;;5.63;2.22;;;;;;;11.19;100.00;101163.34;7394700;19;20011;-55
2022/04/16 06:42:07;;;;;;;2.90;2.05;;;;;;;11.29;100.00;101160.22;7395077;19;20007;-55
2022/04/16 06:44:33;;;;;;;11.18;2.65;;;;;;;11.34;100.00;101158.88;7393639;19;20014;-55
2022/04/16 06:47:00;;;;;;;10.52;3.47;;;;;;;11.48;100.00;101157.63;7394832;19;20074;-55
2022/04/16 06:49:26;;;;;;;10.73;4.10;;;;;;;11.64;100.00;101155.44;7392874;19;20010;-55
2022/04/16 06:51:52;;;;;;;27.35;5.93;;;;;;;11.86;100.00;101161.09;7398106;19;20041;-55
2022/04/16 06:54:19;;;;;;;18.55;8.35;;;;;;;11.99;100.00;101147.84;7397008;19;20021;-55
2022/04/16 06:56:45;;;;;;;21.67;6.43;;;;;;;12.17;100.00;101151.56;7393304;19;20018;-55
2022/04/16 06:59:11;;;;;;;10.70;6.18;;;;;;;12.27;100.00;101157.19;7394585;19;20031;-55
2022/04/16 07:01:37;;;;;;;9.02;4.82;;;;;;;12.41;100.00;101146.28;7394270;19;20006;-55
2022/04/16 07:04:04;;;;;;;10.18;5.25;;;;;;;12.53;100.00;101150.22;7399164;19;20033;-55
2022/04/16 07:06:30;;;;;;;11.43;4.53;;;;;;;12.76;100.00;101149.72;7393917;19;20048;-55
2022/04/16 07:08:56;;;;;;;29.13;5.32;;;;;;;12.94;100.00;101147.00;7392641;19;20011;-55
2022/04/16 07:11:22;;;;;;;11.43;4.55;;;;;;;13.12;100.00;101149.91;7392634;19;20070;-55
2022/04/16 07:13:48;;;;;;;7.00;3.78;;;;;;;13.28;100.00;101141.22;7391484;19;20018;-55
2022/04/16 07:16:15;;;;;;;21.50;5.40;;;;;;;13.49;100.00;101145.91;7397717;19;20364;-55
2022/04/16 07:18:41;;;;;;;18.10;6.00;;;;;;;13.58;100.00;101137.53;7393316;19;20070;-55
2022/04/16 07:21:07;;;;;;;20.90;6.10;;;;;;;13.64;100.00;101143.31;7393133;19;20006;-55
2022/04/16 07:23:33;;;;;;;12.90;4.60;;;;;;;13.79;100.00;101147.06;7393759;19;21228;-55
2022/04/16 07:26:00;;;;;;;9.20;4.03;;;;;;;13.86;100.00;101148.78;7391909;19;20021;-55
2022/04/16 07:28:26;;;;;;;14.07;5.57;;;;;;;13.93;100.00;101145.63;7391501;19;20039;-55
2022/04/16 07:30:52;;;;;;;11.70;4.18;;;;;;;13.94;100.00;101158.41;7392075;19;20024;-54
2022/04/16 07:33:19;;;;;;;17.33;6.45;;;;;;;14.02;100.00;101154.03;7394930;19;20487;-54
2022/04/16 07:35:45;;;;;;;11.30;4.28;;;;;;;14.11;100.00;101163.22;7394635;19;20467;-55
2022/04/16 07:38:11;;;;;;;15.65;5.40;;;;;;;14.18;100.00;101150.91;7392118;19;20093;-55
2022/04/16 07:40:38;;;;;;;13.05;5.28;;;;;;;14.22;100.00;101159.94;7392483;19;20014;-55
2022/04/16 07:43:06;;;;;;;9.68;4.10;;;;;;;14.27;100.00;101167.72;7393299;19;20348;-55
2022/04/16 07:45:33;;;;;;;19.70;5.78;;;;;;;14.26;100.00;101163.34;7392639;19;20070;-58
2022/04/16 07:48:00;;;;;;;9.50;4.13;;;;;;;14.30;100.00;101158.41;7395490;19;20015;-57
2022/04/16 07:50:26;;;;;;;13.85;4.50;;;;;;;14.32;100.00;101161.50;7389767;19;20015;-57
2022/04/16 07:52:52;;;;;;;12.80;5.07;;;;;;;14.41;100.00;101164.28;7392933;19;20010;-57
2022/04/16 07:55:18;;;;;;;10.57;5.43;;;;;;;14.50;100.00;101169.88;7391466;19;20006;-57
2022/04/16 07:57:44;;;;;;;13.23;4.65;;;;;;;14.56;100.00;101170.81;7397726;19;20022;-58
2022/04/16 08:00:11;;;;;;;15.93;5.25;;;;;;;14.54;100.00;101170.50;7402111;19;20011;-58
2022/04/16 08:02:40;;;;;;;12.18;4.63;;;;;;;14.64;100.00;101172.03;7399851;19;20023;-57
2022/04/16 08:05:07;;;;;;;10.10;4.70;;;;;;;14.76;100.00;101168.25;7399570;19;20491;-57
2022/04/16 08:07:34;;;;;;;16.42;5.22;;;;;;;14.90;100.00;101167.56;7399233;19;20007;-58
2022/04/16 08:10:00;;;;;;;12.65;4.78;;;;;;;14.90;100.00;101166.81;7397056;19;20019;-57
2022/04/16 08:12:26;;;;;;;17.45;6.15;;;;;;;14.94;100.00;101176.59;7399209;19;20046;-57
2022/04/16 08:14:53;;;;;;;22.23;5.22;;;;;;;14.98;100.00;101171.59;7399752;19;20010;-58
2022/04/16 08:17:19;;;;;;;15.05;5.20;;;;;;;14.98;100.00;101168.81;7398147;19;20017;-57
2022/04/16 08:19:46;;;;;;;18.50;5.97;;;;;;;14.96;100.00;101168.50;7399218;19;20474;-57
2022/04/16 08:22:17;;;;;;;12.50;4.38;;;;;;;15.00;100.00;101171.91;7398495;19;20463;-58
2022/04/16 08:24:54;;;;;;;12.23;5.32;;;;;;;14.99;100.00;101169.56;7403368;19;20395;-57
2022/04/16 08:27:21;;;;;;;11.38;3.88;;;;;;;15.08;100.00;101166.72;7401058;19;20009;-57
2022/04/16 08:29:47;;;;;;;10.95;4.72;;;;;;;15.11;100.00;101177.00;7399523;19;20025;-57
2022/04/16 08:32:13;;;;;;;10.27;4.82;;;;;;;15.23;100.00;101163.97;7399686;19;20042;-57
2022/04/16 08:34:39;;;;;;;14.60;6.57;;;;;;;15.42;100.00;101168.25;7400473;19;20014;-58
2022/04/16 08:37:06;;;;;;;12.82;4.18;;;;;;;15.49;100.00;101167.91;7399682;19;20014;-57
2022/04/16 08:39:32;;;;;;;17.45;5.80;;;;;;;15.48;100.00;101169.19;7398969;19;20349;-57
2022/04/16 08:41:59;;;;;;;14.02;5.53;;;;;;;15.54;100.00;101170.88;7395635;19;20031;-57
2022/04/16 08:44:26;;;;;;;20.92;5.55;;;;;;;15.59;100.00;101164.56;7397942;19;20014;-58
2022/04/16 08:46:54;;;;;;;12.80;5.15;;;;;;;15.62;100.00;101160.81;7400735;19;20341;-59
2022/04/16 08:49:21;;;;;;;8.90;3.75;;;;;;;15.75;100.00;101158.53;7397179;19;20011;-57
2022/04/16 08:51:48;;;;;;;9.70;4.53;;;;;;;15.77;100.00;101152.44;7398517;19;20031;-57
2022/04/16 08:54:14;;;;;;;9.40;4.20;;;;;;;15.98;100.00;101156.97;7401268;19;20015;-59
2022/04/16 08:56:41;;;;;;;9.90;4.68;;;;;;;16.12;100.00;101150.56;7397007;19;20423;-58
2022/04/16 08:59:08;;;;;;;8.65;3.75;;;;;;;16.23;100.00;101159.22;7396175;19;20026;-59
2022/04/16 09:01:34;;;;;;;10.60;4.80;;;;;;;16.36;100.00;101159.72;7396627;19;20479;-58
2022/04/16 09:04:00;;;;;;;15.70;5.82;;;;;;;16.49;100.00;101154.59;7398540;19;20018;-58
2022/04/16 09:06:27;;;;;;;12.98;3.90;;;;;;;16.68;100.00;101153.16;7397102;19;20006;-58
2022/04/16 09:08:54;;;;;;;9.73;4.03;;;;;;;16.85;100.00;101155.47;7397739;19;20035;-58
2022/04/16 09:11:22;;;;;;;11.35;3.90;;;;;;;16.97;100.00;101154.38;7397106;19;20022;-58
2022/04/16 09:13:53;;;;;;;12.23;4.00;;;;;;;17.10;100.00;101154.81;7395207;19;20007;-58
2022/04/16 09:16:20;;;;;;;6.47;2.35;;;;;;;17.21;100.00;101152.19;7396164;19;20014;-57
2022/04/16 09:18:52;;;;;;;8.23;3.22;;;;;;;17.33;100.00;101159.50;7392506;19;20018;-58
2022/04/16 09:21:23;;;;;;;9.35;3.50;;;;;;;17.54;100.00;101152.69;7393772;19;20036;-57
2022/04/16 09:23:52;;;;;;;11.80;2.90;;;;;;;17.74;100.00;101155.47;7395538;19;20011;-58
2022/04/16 09:26:35;;;;;;;6.00;3.17;;;;;;;17.85;100.00;101152.78;7395517;19;20021;-58
2022/04/16 09:29:12;;;;;;;5.15;2.95;;;;;;;17.98;100.00;101155.25;7394721;19;20018;-58
2022/04/16 09:31:41;;;;;;;12.20;3.25;;;;;;;18.14;100.00;101152.63;7394379;19;20011;-57
2022/04/16 09:34:15;;;;;;;8.27;2.85;;;;;;;18.28;100.00;101153.78;7398108;19;20015;-57
2022/04/16 09:36:43;;;;;;;5.35;2.85;;;;;;;18.34;100.00;101151.03;7390311;19;20056;-57
2022/04/16 09:39:11;;;;;;;6.38;2.30;;;;;;;18.54;100.00;101153.78;7389745;19;20010;-58
2022/04/16 09:41:39;;;;;;;7.28;2.75;;;;;;;18.77;100.00;101149.91;7394314;19;20018;-58
2022/04/16 09:44:23;;;;;;;6.18;2.50;;;;;;;18.83;100.00;101143.03;7391096;19;20015;-58
2022/04/16 09:46:50;;;;;;;5.00;2.15;;;;;;;18.87;100.00;101146.38;7391781;19;20014;-58
2022/04/16 09:49:17;;;;;;;4.97;2.22;;;;;;;18.86;100.00;101142.00;7393791;19;20021;-58
2022/04/16 09:51:45;;;;;;;3.22;2.13;;;;;;;18.77;100.00;101141.44;7394711;19;20359;-59
2022/04/16 09:54:13;;;;;;;9.00;2.10;;;;;;;18.95;100.00;101141.03;7399045;19;20011;-58
2022/04/16 09:56:41;;;;;;;2.28;1.05;;;;;;;19.02;100.00;101137.75;7395712;19;20015;-57
2022/04/16 09:59:09;;;;;;;2.22;1.25;;;;;;;19.17;100.00;101137.59;7397593;19;20014;-57
2022/04/16 10:01:41;;;;;;;16.80;2.85;;;;;;;19.26;100.00;101134.56;7395291;19;20011;-57
2022/04/16 10:04:08;;;;;;;5.57;1.90;;;;;;;19.34;100.00;101139.25;7395225;19;20078;-57
2022/04/16 10:06:34;;;;;;;3.63;1.45;;;;;;;19.39;100.00;101141.34;7395040;19;20007;-58
2022/04/16 10:09:13;;;;;;;7.40;2.45;;;;;;;19.50;100.00;101141.41;7395211;19;20018;-57
2022/04/16 10:14:49;;;;;;;8.07;2.30;;;;;;;19.83;100.00;101142.84;7392763;19;20014;-58
2022/04/16 10:17:27;;;;;;;7.55;1.42;;;;;;;19.95;100.00;101145.19;7394010;19;20019;-57
2022/04/16 10:19:55;;;;;;;6.43;2.00;;;;;;;19.90;100.00;101143.13;7393474;19;20070;-57
2022/04/16 10:22:25;;;;;;;6.68;1.30;;;;;;;19.92;100.00;101151.09;7392955;19;20017;-57
2022/04/16 10:24:57;;;;;;;2.47;1.92;;;;;;;20.02;100.00;101141.09;7399371;19;20006;-57
2022/04/16 10:27:29;;;;;;;6.50;1.90;;;;;;;20.13;100.00;101143.94;7394252;19;20010;-58
2022/04/16 10:30:08;;;;;;;4.28;2.30;;;;;;;20.31;100.00;101141.44;7392486;19;20015;-58
2022/04/16 10:32:42;;;;;;;13.30;1.98;;;;;;;20.35;100.00;101144.81;7393985;19;20038;-58
2022/04/16 10:35:16;;;;;;;2.90;1.38;;;;;;;20.38;100.00;101138.09;7394241;19;20035;-58
2022/04/16 10:37:45;;;;;;;3.72;1.67;;;;;;;20.47;100.00;101139.91;7394911;19;20451;-58
2022/04/16 10:40:18;;;;;;;3.72;1.42;;;;;;;20.51;100.00;101140.44;7392457;19;20428;-58
2022/04/16 10:42:49;;;;;;;3.70;1.13;;;;;;;20.55;100.00;101134.53;7393921;19;20044;-58
2022/04/16 10:45:15;;;;;;;;;;;;;;;20.66;100.00;101128.88;7393837;19;20017;-58
2022/04/16 10:47:42;;;;;;;6.13;1.48;;;;;;;20.64;100.00;101126.53;7394889;19;20341;-58
2022/04/16 10:50:17;;;;;;;8.07;1.15;;;;;;;20.67;100.00;101142.50;7391128;19;20015;-58
2022/04/16 10:53:01;;;;;;;4.32;1.13;;;;;;;20.80;100.00;101128.59;7393745;19;20087;-58
2022/04/16 10:55:32;;;;;;;4.50;1.05;;;;;;;20.87;100.00;101130.16;7393045;19;20018;-58
2022/04/16 10:58:03;;;;;;;3.35;0.98;;;;;;;20.95;100.00;101129.09;7392804;19;20062;-58
2022/04/16 11:00:44;;;;;;;5.40;1.63;;;;;;;21.04;100.00;101130.91;7398223;19;20010;-58
2022/04/16 11:03:12;;;;;;;3.83;1.58;;;;;;;21.08;100.00;101132.19;7393337;19;20010;-58
2022/04/16 11:05:41;;;;;;;4.35;1.75;;;;;;;21.16;100.00;101126.75;7392824;19;20043;-58
2022/04/16 11:08:10;;;;;;;5.03;1.63;;;;;;;21.23;100.00;101125.47;7391734;19;20015;-58
2022/04/16 11:10:39;;;;;;;3.13;1.17;;;;;;;21.33;100.00;101126.75;7390126;19;20006;-58
2022/04/16 11:13:05;;;;;;;3.33;1.23;;;;;;;21.48;100.00;101118.69;7395967;19;20018;-63
2022/04/16 11:15:32;;;;;;;2.47;1.45;;;;;;;21.58;100.00;101122.78;7395537;19;20007;-58
2022/04/16 11:18:01;;;;;;;3.90;1.38;;;;;;;21.67;100.00;101116.81;7396154;19;20456;-58
2022/04/16 11:20:28;;;;;;;1.42;0.70;;;;;;;21.82;100.00;101126.56;7392145;19;20029;-58
2022/04/16 11:22:54;;;;;;;3.17;0.85;;;;;;;21.86;100.00;101117.78;7392180;19;20022;-58
2022/04/16 11:25:23;;;;;;;6.30;1.75;;;;;;;21.86;100.00;101118.56;7390912;19;20021;-58
2022/04/16 11:36:09;;;;;;;3.65;0.80;;;;;;;22.28;100.00;101120.13;7406768;19;20460;-63
2022/04/16 11:38:42;;;;;;;3.63;0.52;;;;;;;22.31;100.00;101113.38;7406812;19;20380;-58
2022/04/16 11:41:12;;;;;;;1.75;1.13;;;;;;;22.51;100.00;101112.97;7406725;19;20101;-59
2022/04/16 11:43:47;;;;;;;3.38;1.27;;;;;;;22.59;100.00;101116.00;7405155;19;20014;-58
2022/04/16 11:46:14;;;;;;;2.25;1.05;;;;;;;22.65;100.00;101108.25;7406577;19;20018;-59